Time;durP1;ratioP1;P1;durP2;ratioP2;P2;SDS_P1;SDS_P2;PMS_P1;PMS_P2;Temp;Humidity;BMP_temperature;BMP_pressure;BME280_temperature;BME280_humidity;BME280_pressure;Samples;Min_cycle;Max_cycle;Signal;HPM_P1;HPM_P2
2022/10/23 00:00:36;;;;;;;3.53;1.27;;;;;;;11.17;70.46;93207.19;2068382;69;20147;-78
2022/10/23 00:03:02;;;;;;;2.50;1.23;;;;;;;11.18;70.43;93211.50;2064901;69;20171;-78
2022/10/23 00:05:28;;;;;;;2.95;1.17;;;;;;;10.95;71.92;93212.09;2068141;69;20160;-76
2022/10/23 00:07:59;;;;;;;3.28;1.27;;;;;;;11.03;71.80;93206.97;2064999;69;20206;-76
2022/10/23 00:10:27;;;;;;;3.47;1.20;;;;;;;11.22;69.75;93203.28;2068316;69;20245;-77
2022/10/23 00:12:53;;;;;;;2.72;1.30;;;;;;;11.16;70.35;93197.25;2064774;69;20136;-77
2022/10/23 00:15:21;;;;;;;3.85;1.35;;;;;;;11.06;70.97;93196.59;2068371;69;20149;-77
2022/10/23 00:17:47;;;;;;;2.55;1.17;;;;;;;10.92;71.55;93205.56;2065065;69;20144;-77
2022/10/23 00:20:14;;;;;;;1.88;1.23;;;;;;;10.90;72.27;93205.44;2068280;69;20163;-75
2022/10/23 00:22:40;;;;;;;7.85;1.23;;;;;;;10.93;71.87;93218.31;2068266;69;20176;-77
2022/10/23 00:25:07;;;;;;;1.67;0.80;;;;;;;10.99;71.78;93217.22;2068338;69;20568;-77
2022/10/23 00:27:33;;;;;;;3.25;1.10;;;;;;;11.05;71.28;93206.38;2068473;69;20592;-76
2022/10/23 00:30:00;;;;;;;2.72;0.90;;;;;;;10.95;71.53;93200.81;2068317;69;20144;-76
2022/10/23 00:32:26;;;;;;;1.08;0.80;;;;;;;10.98;71.13;93196.03;2064888;69;20153;-76
2022/10/23 00:34:53;;;;;;;3.38;1.13;;;;;;;11.06;70.20;93199.41;2068467;69;20248;-76
2022/10/23 00:37:19;;;;;;;4.93;1.23;;;;;;;10.99;71.07;93194.69;2068429;69;20240;-77
2022/10/23 00:39:44;;;;;;;2.58;1.15;;;;;;;10.94;71.10;93207.78;2068385;69;20236;-77
2022/10/23 00:42:16;;;;;;;4.20;1.20;;;;;;;10.94;70.52;93207.78;2065084;69;20672;-77
2022/10/23 00:44:42;;;;;;;3.77;1.20;;;;;;;10.86;70.95;93216.44;2068470;69;20740;-77
2022/10/23 00:47:09;;;;;;;2.55;1.02;;;;;;;10.73;71.22;93210.56;2064763;69;20249;-77
2022/10/23 00:49:35;;;;;;;5.85;1.08;;;;;;;10.86;70.85;93216.44;2064865;69;20603;-77
2022/10/23 00:52:03;;;;;;;2.35;1.10;;;;;;;10.73;71.95;93214.13;2068163;69;20136;-78
2022/10/23 00:54:34;;;;;;;3.30;1.30;;;;;;;10.90;70.65;93215.94;2064776;69;20160;-77
2022/10/23 00:57:04;;;;;;;2.22;1.05;;;;;;;10.79;70.96;93210.97;2064928;69;20160;-76
2022/10/23 00:59:30;;;;;;;3.00;1.13;;;;;;;10.76;70.96;93212.91;2064942;69;20148;-77
2022/10/23 01:01:57;;;;;;;4.82;1.00;;;;;;;10.84;70.58;93205.00;2064640;69;20141;-78
2022/10/23 01:04:23;;;;;;;2.60;1.08;;;;;;;10.91;70.03;93209.72;2064816;69;20240;-77
2022/10/23 01:07:12;;;;;;;3.45;0.80;;;;;;;10.86;70.34;93204.44;2064844;69;20168;-78
2022/10/23 01:09:50;;;;;;;2.40;0.85;;;;;;;10.84;70.25;93210.66;2068214;69;20144;-76
2022/10/23 01:12:35;;;;;;;5.65;1.20;;;;;;;10.80;70.78;93201.19;2068184;69;20175;-77
2022/10/23 01:15:29;;;;;;;3.17;1.10;;;;;;;10.76;70.73;93206.53;2068281;69;20172;-77
2022/10/23 01:18:02;;;;;;;;;;;;;;;10.75;70.68;93199.44;2067813;69;20145;-77
2022/10/23 01:20:37;;;;;;;4.05;1.30;;;;;;;10.72;70.04;93209.06;2065021;69;20471;-78
2022/10/23 01:23:31;;;;;;;4.47;0.95;;;;;;;10.69;70.74;93208.94;2064844;69;20230;-77
2022/10/23 01:26:06;;;;;;;2.72;0.70;;;;;;;10.64;70.47;93209.28;2065002;69;20629;-78
2022/10/23 01:28:46;;;;;;;2.30;0.70;;;;;;;10.59;71.23;93204.72;2067841;69;20528;-76
2022/10/23 01:31:17;;;;;;;4.22;1.23;;;;;;;10.65;70.62;93191.78;2068127;69;20180;-76
2022/10/23 01:33:50;;;;;;;3.83;1.48;;;;;;;10.63;71.23;93188.09;2068312;69;20145;-77
2022/10/23 01:36:26;;;;;;;4.00;1.25;;;;;;;10.63;70.96;93188.84;2064848;69;20188;-77
2022/10/23 01:39:07;;;;;;;2.00;0.75;;;;;;;10.63;70.34;93191.66;2064711;69;20152;-78
2022/10/23 01:41:48;;;;;;;5.10;0.98;;;;;;;10.63;70.22;93188.84;2064879;69;20145;-77
2022/10/23 01:44:28;;;;;;;3.80;0.98;;;;;;;10.64;70.82;93181.13;2064663;69;20296;-77
2022/10/23 01:46:56;;;;;;;3.42;0.80;;;;;;;10.55;71.30;93168.56;2064832;69;20171;-77
2022/10/23 01:49:24;;;;;;;4.43;1.17;;;;;;;10.52;72.10;93175.38;2064853;69;20145;-78
2022/10/23 01:51:57;;;;;;;2.05;0.98;;;;;;;10.57;70.65;93173.59;2064910;69;20245;-77
2022/10/23 01:54:28;;;;;;;3.13;0.90;;;;;;;10.40;72.75;93172.50;2064943;69;20145;-76
2022/10/23 01:56:56;;;;;;;5.63;1.00;;;;;;;10.47;71.12;93173.63;2064843;69;20539;-78
2022/10/23 01:59:34;;;;;;;5.80;0.80;;;;;;;10.36;72.73;93177.09;2062245;69;20145;-78
2022/10/23 02:02:02;;;;;;;2.00;0.93;;;;;;;10.51;71.15;93176.00;2064671;69;20155;-78
2022/10/23 02:04:35;;;;;;;2.85;0.90;;;;;;;10.56;71.20;93172.13;2068120;69;20148;-78
2022/10/23 02:07:01;;;;;;;6.22;1.10;;;;;;;10.54;70.92;93177.63;2064906;69;20170;-78
2022/10/23 02:09:26;;;;;;;3.13;1.20;;;;;;;10.54;70.46;93172.00;2068139;69;20593;-77
2022/10/23 02:12:07;;;;;;;3.33;1.13;;;;;;;10.18;73.26;93171.66;2067905;69;20644;-78
2022/10/23 02:14:42;;;;;;;4.20;1.23;;;;;;;10.41;71.36;93157.06;2067989;69;20528;-78
2022/10/23 02:17:39;;;;;;;2.95;0.98;;;;;;;10.51;70.13;93162.66;2064624;69;20145;-78
2022/10/23 02:20:18;;;;;;;4.18;1.25;;;;;;;10.43;70.84;93156.47;2057888;69;20152;-78
2022/10/23 02:23:16;;;;;;;2.25;1.05;;;;;;;10.36;70.73;93152.50;2067534;69;20159;-78
2022/10/23 02:25:52;;;;;;;6.03;1.38;;;;;;;10.49;69.94;93153.31;2053591;69;20182;-78
2022/10/23 02:28:25;;;;;;;2.88;0.95;;;;;;;10.32;71.08;93155.03;2053931;69;20164;-78
2022/10/23 02:30:58;;;;;;;2.15;0.98;;;;;;;10.23;71.69;93155.78;2051093;69;20202;-78
2022/10/23 02:33:26;;;;;;;4.15;1.13;;;;;;;9.88;72.79;93164.63;2051017;70;20146;-78
2022/10/23 02:35:52;;;;;;;3.28;1.20;;;;;;;10.06;72.09;93151.09;2053811;69;20185;-78
2022/10/23 02:38:32;;;;;;;3.13;1.00;;;;;;;10.22;71.12;93154.31;2053853;70;20494;-77
2022/10/23 02:41:48;;;;;;;1.83;0.90;;;;;;;10.25;70.91;93147.50;2053777;69;20254;-77
2022/10/23 02:44:20;;;;;;;3.65;0.70;;;;;;;10.17;72.18;93146.91;2044488;70;20218;-77
2022/10/23 02:47:03;;;;;;;2.92;0.90;;;;;;;10.25;71.47;93143.94;2047042;70;20146;-77
2022/10/23 02:49:29;;;;;;;4.38;0.90;;;;;;;10.12;71.65;93147.97;2044305;70;20154;-77
2022/10/23 02:52:13;;;;;;;3.78;0.95;;;;;;;10.23;71.58;93150.16;2047164;70;20205;-77
2022/10/23 02:55:22;;;;;;;1.50;0.65;;;;;;;10.29;71.04;93159.03;2044266;70;20146;-77
2022/10/23 02:57:51;;;;;;;3.92;0.70;;;;;;;10.17;71.56;93155.34;2047384;70;20138;-77
2022/10/23 03:00:19;;;;;;;2.92;1.10;;;;;;;10.26;71.33;93159.50;2041539;70;20126;-78
2022/10/23 03:02:57;;;;;;;4.72;0.85;;;;;;;10.29;70.74;93159.03;2053855;69;20153;-78
2022/10/23 03:05:33;;;;;;;3.10;1.00;;;;;;;10.10;71.55;93151.38;2054931;69;20231;-77
2022/10/23 03:07:59;;;;;;;2.83;1.23;;;;;;;10.25;70.83;93147.50;2059634;69;20142;-77
2022/10/23 03:10:24;;;;;;;4.45;1.15;;;;;;;10.29;70.00;93142.16;2056992;69;20221;-78
2022/10/23 03:12:52;;;;;;;1.15;0.75;;;;;;;10.36;70.03;93132.81;2059090;69;20161;-77
2022/10/23 03:15:18;;;;;;;3.47;0.82;;;;;;;10.17;70.71;93141.28;2056640;69;20188;-78
2022/10/23 03:17:44;;;;;;;1.33;0.70;;;;;;;10.24;70.49;93140.41;2056620;69;20153;-78
2022/10/23 03:20:13;;;;;;;3.13;0.88;;;;;;;10.27;70.82;93150.47;2062362;69;20264;-76
2022/10/23 03:22:40;;;;;;;3.58;0.68;;;;;;;10.22;70.87;93142.31;2065934;69;20222;-77
2022/10/23 03:25:08;;;;;;;1.80;0.80;;;;;;;10.10;71.54;93147.84;2069220;69;20153;-77
2022/10/23 03:27:35;;;;;;;3.05;1.02;;;;;;;10.16;70.25;93148.25;2065751;69;20133;-77
2022/10/23 03:30:05;;;;;;;3.65;1.00;;;;;;;10.12;70.84;93150.78;2068883;69;20133;-77
2022/10/23 03:32:32;;;;;;;1.95;0.90;;;;;;;10.06;71.36;93142.66;2065247;69;20164;-77
2022/10/23 03:34:58;;;;;;;1.73;0.70;;;;;;;10.12;71.27;93143.06;2062415;69;20184;-76
2022/10/23 03:37:25;;;;;;;2.65;0.90;;;;;;;10.15;70.98;93153.13;2064882;69;20152;-77
2022/10/23 03:39:53;;;;;;;1.77;0.70;;;;;;;10.14;70.16;93156.56;2065236;69;20520;-77
2022/10/23 03:42:19;;;;;;;3.40;0.85;;;;;;;10.11;70.89;93160.56;2068534;69;20137;-77
2022/10/23 03:44:45;;;;;;;2.17;0.80;;;;;;;10.08;70.67;93153.31;2065036;69;20141;-77
2022/10/23 03:47:11;;;;;;;3.10;1.10;;;;;;;10.09;71.01;93146.38;2064729;69;20145;-77
2022/10/23 03:49:38;;;;;;;3.83;1.23;;;;;;;10.08;70.53;93150.50;2068086;69;20149;-77
2022/10/23 03:52:05;;;;;;;2.13;0.63;;;;;;;10.07;70.33;93146.94;2067778;69;20149;-77
2022/10/23 03:54:32;;;;;;;1.55;0.73;;;;;;;9.88;71.60;93147.75;2067802;69;20158;-77
2022/10/23 03:56:59;;;;;;;3.15;1.00;;;;;;;9.92;71.26;93141.69;2068187;69;20589;-77
2022/10/23 03:59:25;;;;;;;1.60;0.57;;;;;;;9.85;72.23;93132.09;2067681;69;20604;-77
2022/10/23 04:01:51;;;;;;;3.15;0.98;;;;;;;9.97;71.10;93132.19;2064731;69;20145;-77
2022/10/23 04:04:19;;;;;;;2.97;0.75;;;;;;;9.87;71.84;93137.09;2064937;69;20173;-77
2022/10/23 04:06:45;;;;;;;5.80;1.30;;;;;;;9.91;71.49;93128.97;2068358;69;20167;-77
2022/10/23 04:09:14;;;;;;;2.22;0.90;;;;;;;9.84;72.01;93133.41;2068554;69;20250;-77
2022/10/23 04:11:40;;;;;;;1.75;0.82;;;;;;;9.95;71.17;93128.50;2065410;69;20175;-77
2022/10/23 04:14:06;;;;;;;2.92;0.88;;;;;;;9.64;73.75;93118.66;2062512;69;20149;-77
2022/10/23 04:16:31;;;;;;;2.90;0.73;;;;;;;9.72;72.60;93114.97;2065225;69;20176;-78
2022/10/23 04:19:00;;;;;;;2.22;0.60;;;;;;;9.85;71.30;93137.72;2068220;69;20148;-78
2022/10/23 04:21:25;;;;;;;3.90;0.88;;;;;;;9.74;72.27;93155.19;2068603;69;20544;-77
2022/10/23 04:23:53;;;;;;;1.40;0.80;;;;;;;9.88;70.69;93155.44;2065312;69;20156;-77
2022/10/23 04:26:19;;;;;;;1.83;1.00;;;;;;;9.80;71.26;93155.59;2065361;69;20153;-77
2022/10/23 04:28:44;;;;;;;2.50;0.98;;;;;;;9.76;70.96;93160.19;2068260;69;20223;-78
2022/10/23 04:31:10;;;;;;;2.90;1.00;;;;;;;9.75;71.08;93165.09;2068490;69;20190;-78
2022/10/23 04:33:39;;;;;;;6.30;1.30;;;;;;;9.70;71.40;93138.03;2065198;69;20151;-77
2022/10/23 04:36:05;;;;;;;3.80;0.77;;;;;;;9.75;70.68;93145.41;2065253;69;20145;-78
2022/10/23 04:38:31;;;;;;;3.25;0.80;;;;;;;9.74;70.54;93158.00;2068107;69;20171;-77
2022/10/23 04:40:57;;;;;;;2.67;1.10;;;;;;;9.57;72.72;93158.16;2068072;69;20144;-78
2022/10/23 04:43:23;;;;;;;3.13;1.02;;;;;;;9.52;72.44;93168.38;2068073;69;20673;-79
2022/10/23 04:45:49;;;;;;;1.23;0.90;;;;;;;9.62;71.16;93160.69;2068549;69;20152;-77
2022/10/23 04:48:14;;;;;;;2.00;0.90;;;;;;;9.68;70.98;93152.69;2065140;69;20149;-78
2022/10/23 04:51:12;;;;;;;2.15;0.88;;;;;;;9.67;71.17;93148.41;2068499;69;20171;-78
2022/10/23 04:53:54;;;;;;;5.18;1.00;;;;;;;9.67;71.07;93148.41;2068541;69;20588;-78
2022/10/23 04:56:26;;;;;;;5.68;1.38;;;;;;;9.59;71.27;93150.63;2068610;69;20144;-78
2022/10/23 04:59:15;;;;;;;3.60;1.70;;;;;;;9.60;71.06;93145.75;2068578;69;20231;-78
2022/10/23 05:01:41;;;;;;;2.60;1.33;;;;;;;9.53;71.55;93160.69;2065043;69;20195;-78
2022/10/23 05:04:08;;;;;;;3.63;1.45;;;;;;;9.47;71.83;93154.63;2065124;69;20144;-78
2022/10/23 05:06:45;;;;;;;9.18;2.53;;;;;;;9.48;71.11;93148.41;2065054;69;20150;-78
2022/10/23 05:09:21;;;;;;;8.57;1.95;;;;;;;9.47;70.89;93152.56;2067881;69;20148;-78
2022/10/23 05:11:59;;;;;;;3.63;1.48;;;;;;;9.43;71.18;93153.00;2065151;69;20259;-78
2022/10/23 05:14:24;;;;;;;7.60;1.30;;;;;;;9.43;71.88;93152.25;2065230;69;20588;-78
2022/10/23 05:16:59;;;;;;;5.50;1.45;;;;;;;9.40;72.90;93145.03;2068304;69;20239;-77
2022/10/23 05:19:34;;;;;;;5.78;1.70;;;;;;;9.46;71.89;93130.69;2068125;69;20137;-78
2022/10/23 05:22:01;;;;;;;2.80;0.98;;;;;;;9.54;71.59;93128.47;2062321;69;20143;-77
2022/10/23 05:24:41;;;;;;;3.53;1.25;;;;;;;9.52;72.01;93128.28;2062581;69;20646;-76
2022/10/23 05:27:07;;;;;;;3.72;1.98;;;;;;;9.50;71.77;93126.09;2065090;69;20242;-76
2022/10/23 05:29:33;;;;;;;3.08;1.70;;;;;;;9.56;71.27;93120.88;2065071;69;20588;-76
2022/10/23 05:32:01;;;;;;;4.60;1.40;;;;;;;9.54;71.08;93128.47;2064932;69;20605;-77
2022/10/23 05:34:31;;;;;;;2.28;1.10;;;;;;;9.52;71.57;93126.22;2065061;69;20156;-76
2022/10/23 05:37:00;;;;;;;3.53;0.95;;;;;;;9.58;71.73;93123.13;2065064;69;20148;-77
2022/10/23 05:39:31;;;;;;;;;;;;;;;9.59;71.71;93119.72;2065200;69;20314;-76
2022/10/23 05:41:59;;;;;;;4.50;1.38;;;;;;;9.64;71.49;93129.16;2064924;69;20098;-76
2022/10/23 05:44:25;;;;;;;2.80;1.50;;;;;;;9.55;71.55;93136.28;2064991;69;20156;-76
2022/10/23 05:47:15;;;;;;;2.83;1.42;;;;;;;9.59;71.17;93139.38;2068060;69;20163;-77
2022/10/23 05:50:09;;;;;;;5.50;1.88;;;;;;;9.61;70.43;93147.22;2064938;69;20156;-77
2022/10/23 05:52:57;;;;;;;6.65;2.05;;;;;;;9.55;71.29;93141.16;2067244;69;20163;-77
2022/10/23 05:55:29;;;;;;;5.13;2.15;;;;;;;9.56;70.60;93148.25;2068395;69;20172;-77
2022/10/23 05:58:03;;;;;;;5.82;2.60;;;;;;;9.46;71.68;93150.34;2068489;69;20145;-77
2022/10/23 06:00:47;;;;;;;4.82;2.47;;;;;;;9.31;71.81;93142.97;2068389;69;20592;-76
2022/10/23 06:03:36;;;;;;;2.92;1.45;;;;;;;9.54;71.53;93143.25;2068281;69;20651;-77
2022/10/23 06:06:06;;;;;;;2.77;1.13;;;;;;;9.56;70.56;93139.84;2064873;69;20218;-77
2022/10/23 06:08:40;;;;;;;4.93;1.98;;;;;;;9.55;70.78;93146.78;2065099;69;20489;-77
2022/10/23 06:11:12;;;;;;;8.18;4.00;;;;;;;9.55;70.79;93152.41;2064947;69;20662;-76
2022/10/23 06:13:43;;;;;;;9.32;3.95;;;;;;;9.51;71.13;93154.94;2064834;69;20156;-77
2022/10/23 06:16:14;;;;;;;5.70;3.72;;;;;;;9.52;70.81;93162.03;2064779;69;20242;-77
2022/10/23 06:18:40;;;;;;;9.32;4.00;;;;;;;9.54;70.36;93156.56;2068220;69;20243;-77
2022/10/23 06:21:12;;;;;;;8.63;3.55;;;;;;;9.53;71.13;93163.50;2062171;69;20216;-77
2022/10/23 06:23:39;;;;;;;4.60;1.60;;;;;;;9.50;71.12;93156.28;2064960;69;20164;-77
2022/10/23 06:26:24;;;;;;;5.90;1.40;;;;;;;9.60;71.31;93149.28;2068173;69;20690;-76
2022/10/23 06:28:55;;;;;;;1.55;0.88;;;;;;;9.63;71.06;93162.16;2064892;69;20658;-77
2022/10/23 06:31:25;;;;;;;15.70;6.25;;;;;;;9.57;72.05;93153.28;2064760;69;20236;-77
2022/10/23 06:33:52;;;;;;;12.02;5.55;;;;;;;9.42;72.24;93151.53;2064958;69;20508;-78
2022/10/23 06:36:17;;;;;;;16.73;7.82;;;;;;;9.59;71.74;93147.81;2064878;69;20494;-76
2022/10/23 06:38:44;;;;;;;7.53;3.10;;;;;;;9.49;72.26;93140.75;2068131;69;20148;-76
2022/10/23 06:41:16;;;;;;;6.28;3.22;;;;;;;9.68;71.97;93155.50;2067570;69;20156;-77
2022/10/23 06:43:47;;;;;;;10.02;5.30;;;;;;;9.59;71.97;93147.09;2064949;69;20560;-77
2022/10/23 06:46:34;;;;;;;11.45;4.57;;;;;;;9.71;71.93;93144.38;2064851;69;20156;-77
2022/10/23 06:49:25;;;;;;;7.72;3.72;;;;;;;9.87;70.96;93139.91;2062907;69;20188;-77
2022/10/23 06:51:53;;;;;;;9.15;3.78;;;;;;;9.87;71.44;93156.78;2067722;69;20698;-77
2022/10/23 06:54:20;;;;;;;5.22;2.30;;;;;;;9.78;72.01;93166.72;2068267;69;20160;-78
2022/10/23 06:56:49;;;;;;;3.88;1.77;;;;;;;10.05;69.98;93148.91;2068377;69;20188;-77
2022/10/23 06:59:19;;;;;;;1.42;1.17;;;;;;;10.14;69.98;93159.38;2067772;69;20164;-77
2022/10/23 07:01:51;;;;;;;3.53;1.52;;;;;;;10.08;70.01;93151.25;2067621;69;20609;-78
2022/10/23 07:04:17;;;;;;;4.38;1.90;;;;;;;10.03;69.54;93157.91;2067433;69;20140;-78
2022/10/23 07:06:44;;;;;;;4.35;2.30;;;;;;;10.02;71.01;93156.44;2067628;69;20597;-78
2022/10/23 07:09:09;;;;;;;6.40;2.92;;;;;;;10.06;70.46;93159.53;2064889;69;20302;-79
2022/10/23 07:11:53;;;;;;;8.43;2.55;;;;;;;10.23;68.65;93155.06;2068202;69;20183;-76
2022/10/23 07:14:30;;;;;;;4.82;2.55;;;;;;;10.20;70.54;93159.78;2064848;69;20143;-78
2022/10/23 07:16:58;;;;;;;6.90;4.00;;;;;;;10.30;69.83;93148.53;2064760;69;20241;-76
2022/10/23 07:19:26;;;;;;;5.28;2.90;;;;;;;10.35;68.64;93151.00;2064903;69;20172;-76
2022/10/23 07:21:56;;;;;;;6.65;3.40;;;;;;;10.05;70.72;93154.53;2064814;69;20670;-79
2022/10/23 07:24:37;;;;;;;7.28;3.00;;;;;;;10.07;71.14;93157.47;2064817;69;20148;-77
2022/10/23 07:27:12;;;;;;;4.13;2.95;;;;;;;10.37;70.12;93161.69;2064870;69;20163;-76
2022/10/23 07:29:38;;;;;;;7.20;3.33;;;;;;;10.41;70.29;93165.50;2064821;69;20149;-78
2022/10/23 07:32:04;;;;;;;4.18;2.97;;;;;;;10.42;69.08;93161.34;2064720;69;20133;-78
2022/10/23 07:34:48;;;;;;;4.60;2.97;;;;;;;10.58;70.07;93156.13;2068178;69;20184;-77
2022/10/23 07:37:22;;;;;;;7.25;2.83;;;;;;;10.39;71.58;93171.00;2064738;69;20167;-78
2022/10/23 07:39:52;;;;;;;14.27;7.55;;;;;;;10.35;71.33;93179.16;2067962;69;20168;-78
2022/10/23 07:42:19;;;;;;;13.95;7.93;;;;;;;10.58;70.74;93184.25;2068249;69;20608;-78
2022/10/23 07:44:45;;;;;;;12.45;7.53;;;;;;;10.72;70.21;93186.53;2068502;69;20151;-75
2022/10/23 07:47:10;;;;;;;11.95;6.68;;;;;;;10.84;69.16;93188.13;2068377;69;20217;-76
2022/10/23 07:49:39;;;;;;;9.77;5.55;;;;;;;10.80;70.41;93189.91;2068511;69;20156;-76
2022/10/23 07:52:08;;;;;;;8.90;4.82;;;;;;;10.90;69.50;93194.19;2066025;69;20140;-76
2022/10/23 07:54:54;;;;;;;29.52;16.92;;;;;;;10.78;69.44;93184.91;2069153;69;20191;-76
2022/10/23 07:57:20;;;;;;;23.67;13.57;;;;;;;10.88;69.14;93187.66;2071960;69;20566;-76
2022/10/23 07:59:53;;;;;;;20.95;12.85;;;;;;;10.93;69.09;93195.78;2068586;69;20144;-78
2022/10/23 08:02:20;;;;;;;56.47;28.60;;;;;;;11.06;69.49;93196.59;2068419;69;20213;-75
2022/10/23 08:04:48;;;;;;;36.63;18.48;;;;;;;11.08;69.76;93200.28;2068546;69;20240;-77
2022/10/23 08:07:43;;;;;;;17.60;9.70;;;;;;;11.28;68.86;93192.44;2069464;69;20248;-79
2022/10/23 08:10:09;;;;;;;13.27;7.20;;;;;;;11.41;68.66;93194.72;2068528;69;20137;-74
2022/10/23 08:12:39;;;;;;;19.65;10.98;;;;;;;11.54;69.96;93195.50;2068510;69;20159;-75
2022/10/23 08:15:08;;;;;;;19.38;10.10;;;;;;;11.71;69.77;93195.94;2069072;69;20140;-79
2022/10/23 08:17:45;;;;;;;21.98;10.90;;;;;;;11.88;68.87;93197.75;2068805;69;20152;-76
2022/10/23 08:20:13;;;;;;;11.50;6.32;;;;;;;11.91;70.08;93201.44;2068478;69;20148;-75
2022/10/23 08:22:42;;;;;;;10.18;5.78;;;;;;;12.09;69.08;93199.03;2071842;69;20710;-77
2022/10/23 08:25:09;;;;;;;10.68;4.65;;;;;;;12.14;68.71;93192.28;2068437;69;20144;-77
2022/10/23 08:27:37;;;;;;;7.85;3.70;;;;;;;12.61;68.76;93198.03;2068458;69;20152;-77
2022/10/23 08:30:04;;;;;;;12.60;4.57;;;;;;;12.89;67.33;93190.53;2068452;69;20263;-80
2022/10/23 08:32:30;;;;;;;9.63;2.90;;;;;;;13.45;65.17;93179.00;2068151;69;20163;-78
2022/10/23 08:35:00;;;;;;;6.95;2.42;;;;;;;13.41;63.85;93181.59;2068508;69;20235;-80
2022/10/23 08:37:29;;;;;;;5.60;1.92;;;;;;;13.23;62.95;93180.53;2068496;69;20176;-77
2022/10/23 08:39:55;;;;;;;6.20;1.88;;;;;;;13.14;62.79;93182.13;2068455;69;20147;-76
2022/10/23 08:42:26;;;;;;;10.75;3.28;;;;;;;13.30;63.08;93179.56;2068514;69;20159;-77
2022/10/23 08:44:54;;;;;;;9.65;3.88;;;;;;;13.39;62.41;93187.16;2068434;69;20143;-77
2022/10/23 08:47:54;;;;;;;9.45;3.55;;;;;;;12.78;66.58;93197.63;2068374;69;20148;-78
2022/10/23 08:50:45;;;;;;;9.77;4.07;;;;;;;13.55;64.47;93195.09;2071895;69;20231;-78
2022/10/23 08:53:15;;;;;;;14.23;3.88;;;;;;;13.75;63.30;93190.63;2071872;69;20151;-77
2022/10/23 08:55:45;;;;;;;8.63;3.42;;;;;;;14.05;62.56;93182.34;2071849;69;20141;-79
2022/10/23 08:58:22;;;;;;;6.45;2.40;;;;;;;13.90;62.04;93178.72;2071821;69;20133;-80
2022/10/23 09:00:49;;;;;;;15.40;4.57;;;;;;;13.68;62.96;93169.72;2071800;69;20618;-78
2022/10/23 09:03:15;;;;;;;10.25;4.65;;;;;;;13.37;63.97;93178.53;2068226;69;20141;-79
2022/10/23 09:06:02;;;;;;;10.30;4.53;;;;;;;13.65;64.60;93176.63;2071760;69;20693;-77
2022/10/23 09:08:42;;;;;;;13.70;5.30;;;;;;;14.28;64.02;93165.22;2071776;69;20187;-78
2022/10/23 09:11:26;;;;;;;12.10;5.32;;;;;;;14.63;61.23;93162.19;2071809;69;20171;-77
2022/10/23 09:13:59;;;;;;;8.13;3.15;;;;;;;14.87;61.28;93154.22;2071869;69;20240;-77
2022/10/23 09:16:40;;;;;;;14.02;4.05;;;;;;;15.32;58.44;93130.97;2071700;69;20144;-78
2022/10/23 09:19:26;;;;;;;9.85;2.95;;;;;;;16.06;59.61;93143.09;2071805;69;20175;-77
2022/10/23 09:21:54;;;;;;;8.55;2.50;;;;;;;16.55;58.07;93136.84;2071637;69;20310;-77
2022/10/23 09:24:24;;;;;;;4.65;2.20;;;;;;;16.11;55.13;93127.72;2071650;69;20183;-77
2022/10/23 09:26:52;;;;;;;4.43;1.55;;;;;;;16.74;54.02;93117.16;2071736;69;20583;-76
2022/10/23 09:29:31;;;;;;;4.32;1.65;;;;;;;17.60;53.38;93111.53;2068689;69;20533;-80
2022/10/23 09:32:03;;;;;;;10.52;4.38;;;;;;;17.77;53.62;93097.31;2071881;69;20159;-78
2022/10/23 09:34:30;;;;;;;9.75;2.97;;;;;;;17.97;53.56;93099.53;2071623;69;20140;-77
2022/10/23 09:36:59;;;;;;;6.47;2.70;;;;;;;18.37;50.02;93108.19;2072059;69;20132;-77
2022/10/23 09:39:28;;;;;;;8.52;2.95;;;;;;;18.21;48.65;93111.16;2071685;69;20144;-77
2022/10/23 09:41:55;;;;;;;9.18;3.00;;;;;;;17.81;52.97;93113.84;2071539;69;20152;-75
2022/10/23 09:44:29;;;;;;;6.25;2.72;;;;;;;17.72;52.83;93107.06;2071703;69;20149;-77
2022/10/23 09:46:59;;;;;;;8.77;2.90;;;;;;;18.02;52.29;93095.47;2068247;69;20191;-77
2022/10/23 09:49:28;;;;;;;10.35;3.53;;;;;;;17.77;50.86;93093.75;2071704;69;20174;-77
2022/10/23 09:52:27;;;;;;;7.97;3.10;;;;;;;17.86;51.65;93111.91;2071753;69;20610;-77
2022/10/23 09:54:57;;;;;;;8.75;3.10;;;;;;;17.89;52.74;93111.34;2071678;69;20251;-76
2022/10/23 09:57:37;;;;;;;6.40;2.63;;;;;;;17.72;51.43;93112.75;2071701;69;20241;-77
2022/10/23 10:00:17;;;;;;;6.13;2.28;;;;;;;16.26;56.79;93124.16;2071656;69;20167;-76
2022/10/23 10:02:55;;;;;;;4.97;1.90;;;;;;;16.58;55.57;93107.13;2071492;69;20140;-77
2022/10/23 10:05:40;;;;;;;7.82;2.33;;;;;;;17.11;54.51;93113.06;2068135;69;20155;-77
2022/10/23 10:08:30;;;;;;;11.02;2.40;;;;;;;18.08;53.18;93103.53;2068189;69;20151;-76
2022/10/23 10:11:01;;;;;;;4.88;2.08;;;;;;;18.21;52.23;93105.47;2071839;69;20148;-78
2022/10/23 10:13:29;;;;;;;7.00;2.58;;;;;;;18.46;50.91;93105.03;2071618;69;20147;-79
2022/10/23 10:16:02;;;;;;;7.00;2.80;;;;;;;18.77;48.85;93095.50;2071658;69;20239;-79
2022/10/23 10:18:46;;;;;;;6.03;2.42;;;;;;;18.15;48.84;93108.09;2071572;69;20152;-78
2022/10/23 10:21:19;;;;;;;5.55;2.47;;;;;;;18.58;49.25;93086.91;2071417;69;20199;-79
2022/10/23 10:23:49;;;;;;;4.82;2.05;;;;;;;18.61;48.37;93089.19;2071662;69;20143;-75
2022/10/23 10:26:27;;;;;;;6.80;2.55;;;;;;;18.97;48.76;93095.50;2068222;69;20144;-76
2022/10/23 10:28:59;;;;;;;6.05;2.42;;;;;;;19.12;48.24;93090.31;2071686;69;20200;-76
2022/10/23 10:31:49;;;;;;;8.02;2.65;;;;;;;19.69;47.11;93087.28;2071614;69;20139;-77
2022/10/23 10:34:35;;;;;;;6.63;2.10;;;;;;;20.27;45.66;93087.00;2068267;69;20662;-77
2022/10/23 10:37:38;;;;;;;4.40;2.00;;;;;;;20.70;43.17;93077.56;2068261;69;20152;-76
2022/10/23 10:40:19;;;;;;;7.07;1.83;;;;;;;21.59;42.18;93092.22;2071850;69;20237;-77
2022/10/23 10:43:06;;;;;;;5.43;1.50;;;;;;;21.27;40.41;93081.31;2069173;69;20324;-77
2022/10/23 10:45:36;;;;;;;3.10;1.15;;;;;;;21.01;41.66;93072.72;2071557;69;20132;-76
2022/10/23 10:48:40;;;;;;;6.60;1.85;;;;;;;21.47;40.16;93072.56;2071647;69;20140;-77
2022/10/23 10:51:43;;;;;;;8.02;2.00;;;;;;;22.19;39.88;93075.09;2071560;69;20190;-77
2022/10/23 10:54:31;;;;;;;10.18;2.10;;;;;;;22.97;37.46;93072.53;2071378;69;20502;-77
2022/10/23 10:56:59;;;;;;;6.70;1.23;;;;;;;23.32;36.88;93079.69;2071623;69;20143;-77
2022/10/23 10:59:24;;;;;;;5.10;1.20;;;;;;;24.35;35.99;93056.31;2071656;69;20140;-77
2022/10/23 11:02:26;;;;;;;5.78;1.60;;;;;;;24.41;34.80;93067.19;2071494;69;20155;-77
2022/10/23 11:05:10;;;;;;;8.60;2.00;;;;;;;25.34;33.88;93065.59;2068416;69;20150;-77
2022/10/23 11:07:58;;;;;;;5.93;1.55;;;;;;;26.25;32.01;93049.88;2071468;69;20201;-77
2022/10/23 11:10:25;;;;;;;10.07;1.85;;;;;;;26.82;31.84;93053.19;2071262;69;20148;-76
2022/10/23 11:12:51;;;;;;;6.95;1.60;;;;;;;27.78;31.32;93045.63;2068050;69;20144;-76
2022/10/23 11:15:32;;;;;;;4.53;1.35;;;;;;;28.14;30.03;93044.22;2071525;69;20132;-77
2022/10/23 11:18:11;;;;;;;7.25;1.73;;;;;;;28.64;30.36;93045.69;2068478;69;20144;-77
2022/10/23 11:20:40;;;;;;;9.80;2.00;;;;;;;29.91;28.75;93022.00;2068583;69;20167;-76
2022/10/23 11:23:45;;;;;;;3.25;1.00;;;;;;;29.54;28.64;93022.19;2068676;69;20151;-75
2022/10/23 11:26:41;;;;;;;4.05;1.58;;;;;;;28.41;29.75;93024.72;2068618;69;20205;-77
2022/10/23 11:29:29;;;;;;;6.00;1.67;;;;;;;28.69;29.81;93008.75;2071900;69;20151;-78
2022/10/23 11:32:24;;;;;;;7.03;1.50;;;;;;;28.20;31.11;93006.59;2071800;69;20145;-78
2022/10/23 11:34:55;;;;;;;4.10;1.20;;;;;;;30.16;28.52;93000.06;2063003;69;20129;-78
2022/10/23 11:37:21;;;;;;;4.63;1.43;;;;;;;29.49;28.41;93004.09;2071915;69;20144;-78
2022/10/23 11:40:13;;;;;;;4.40;1.50;;;;;;;30.79;27.57;93001.69;2071842;69;20179;-79
2022/10/23 11:42:40;;;;;;;4.47;1.30;;;;;;;28.25;29.04;92992.84;2071920;69;20669;-78
2022/10/23 11:45:30;;;;;;;8.73;1.73;;;;;;;28.97;28.95;92982.59;2071768;69;20492;-78
2022/10/23 11:48:03;;;;;;;3.30;1.17;;;;;;;28.98;28.87;92989.13;2071771;69;20148;-78
2022/10/23 11:50:48;;;;;;;3.95;1.23;;;;;;;27.93;29.74;92979.84;2071902;69;20530;-76
2022/10/23 11:53:27;;;;;;;6.70;1.60;;;;;;;28.01;31.30;92956.69;2071789;69;20156;-77
2022/10/23 11:56:24;;;;;;;6.22;1.42;;;;;;;27.33;31.83;92967.44;2071922;69;20735;-76
2022/10/23 11:58:53;;;;;;;6.60;1.50;;;;;;;27.96;32.45;92963.22;2071853;69;20226;-77
2022/10/23 12:01:40;;;;;;;8.93;1.88;;;;;;;29.20;31.02;92953.53;2072032;69;20163;-77
2022/10/23 12:04:20;;;;;;;6.53;1.67;;;;;;;29.30;30.27;92965.06;2071838;69;20237;-77